createdAt,value
2017-05-25T00:02:03.213Z,10.40
2017-05-25T00:04:31.521Z,10.30
2017-05-25T00:06:59.848Z,10.30
2017-05-25T00:09:28.155Z,10.30
2017-05-25T00:11:56.479Z,10.40
2017-05-25T00:14:24.781Z,10.40
2017-05-25T00:16:53.123Z,10.40
2017-05-25T00:19:21.439Z,10.20
2017-05-25T00:21:49.743Z,10.00
2017-05-25T00:24:18.072Z,9.80
2017-05-25T00:26:46.373Z,9.70
2017-05-25T00:29:14.691Z,9.70
2017-05-25T00:31:42.992Z,9.70
2017-05-25T00:34:11.334Z,9.70
2017-05-25T00:36:39.636Z,9.80
2017-05-25T00:39:07.936Z,9.80
2017-05-25T00:41:36.256Z,9.80
2017-05-25T00:44:04.559Z,9.80
2017-05-25T00:46:32.887Z,9.70
2017-05-25T00:49:01.196Z,9.70
2017-05-25T00:51:29.529Z,9.70
2017-05-25T00:53:57.828Z,9.70
2017-05-25T00:56:26.123Z,9.80
2017-05-25T00:58:54.438Z,9.80
2017-05-25T01:01:22.744Z,9.60
2017-05-25T01:03:51.063Z,9.40
2017-05-25T01:06:19.368Z,9.30
2017-05-25T01:08:47.697Z,9.30
2017-05-25T01:11:15.997Z,9.10
2017-05-25T01:13:44.293Z,9.20
2017-05-25T01:16:12.614Z,9.20
2017-05-25T01:18:40.920Z,9.10
2017-05-25T01:21:09.239Z,9.20
2017-05-25T01:23:37.542Z,9.20
2017-05-25T01:26:05.876Z,9.10
2017-05-25T01:28:34.171Z,9.10
2017-05-25T01:31:02.462Z,9.20
2017-05-25T01:33:30.786Z,9.20
2017-05-25T01:35:59.083Z,9.10
2017-05-25T01:38:27.401Z,9.10
2017-05-25T01:40:55.718Z,8.90
2017-05-25T01:43:24.051Z,8.90
2017-05-25T01:45:52.348Z,8.90
2017-05-25T01:48:20.651Z,9.00
2017-05-25T01:50:48.968Z,9.00
2017-05-25T01:53:17.265Z,9.10
2017-05-25T01:55:45.589Z,9.10
2017-05-25T01:58:13.897Z,9.00
2017-05-25T02:00:42.233Z,8.90
2017-05-25T02:03:10.535Z,8.90
2017-05-25T02:05:38.844Z,8.90
2017-05-25T02:08:07.164Z,9.00
2017-05-25T02:10:35.472Z,9.00
2017-05-25T02:13:03.786Z,9.00
2017-05-25T02:15:32.083Z,9.00
2017-05-25T02:18:00.415Z,9.00
2017-05-25T02:20:28.708Z,9.00
2017-05-25T02:22:57.008Z,9.00
2017-05-25T02:25:25.327Z,9.00
2017-05-25T02:27:53.623Z,9.10
2017-05-25T02:30:21.941Z,9.10
2017-05-25T02:32:50.240Z,9.10
2017-05-25T02:35:18.955Z,9.10
2017-05-25T02:37:47.254Z,9.00
2017-05-25T02:40:15.547Z,8.80
2017-05-25T02:42:43.867Z,8.70
2017-05-25T02:45:12.168Z,8.60
2017-05-25T02:47:40.491Z,8.60
2017-05-25T02:50:08.796Z,8.50
2017-05-25T02:52:37.211Z,8.50
2017-05-25T02:55:05.584Z,8.60
2017-05-25T02:57:33.950Z,8.70
2017-05-25T03:00:02.283Z,8.70
2017-05-25T03:02:30.588Z,8.70
2017-05-25T03:04:58.907Z,8.60
2017-05-25T03:07:27.203Z,8.60
2017-05-25T03:09:55.537Z,8.50
2017-05-25T03:12:23.841Z,8.40
2017-05-25T03:14:52.136Z,8.40
2017-05-25T03:17:20.458Z,8.30
2017-05-25T03:19:48.751Z,8.40
2017-05-25T03:22:17.072Z,8.40
2017-05-25T03:24:45.365Z,8.50
2017-05-25T03:27:13.687Z,8.60
2017-05-25T03:29:41.988Z,8.70
2017-05-25T03:32:10.295Z,8.80
2017-05-25T03:34:38.619Z,8.90
2017-05-25T03:37:06.929Z,9.00
2017-05-25T03:39:35.241Z,9.10
2017-05-25T03:42:03.541Z,9.20
2017-05-25T03:44:31.882Z,9.30
2017-05-25T03:47:00.188Z,9.30
2017-05-25T03:49:28.496Z,9.30
2017-05-25T03:51:56.820Z,9.30
2017-05-25T03:54:25.120Z,9.20
2017-05-25T03:56:53.448Z,9.20
2017-05-25T03:59:21.749Z,9.30
2017-05-25T04:01:50.072Z,9.40
2017-05-25T04:04:18.380Z,9.60
2017-05-25T04:06:46.688Z,9.70
2017-05-25T04:09:15.012Z,9.80
2017-05-25T04:11:43.323Z,9.80
2017-05-25T04:14:11.649Z,9.70
2017-05-25T04:16:39.947Z,9.60
2017-05-25T04:19:08.297Z,9.60
2017-05-25T04:21:36.604Z,9.70
2017-05-25T04:24:04.907Z,9.80
2017-05-25T04:26:33.235Z,9.90
2017-05-25T04:29:01.581Z,10.00
2017-05-25T04:31:29.903Z,10.10
2017-05-25T04:33:58.221Z,10.30
2017-05-25T04:36:26.564Z,10.30
2017-05-25T04:38:54.911Z,10.40
2017-05-25T04:41:23.267Z,10.40
2017-05-25T04:43:51.601Z,10.50
2017-05-25T04:46:19.904Z,10.50
2017-05-25T04:48:48.228Z,10.70
2017-05-25T04:51:16.556Z,10.80
2017-05-25T04:53:44.909Z,11.00
2017-05-25T04:56:13.228Z,11.10
2017-05-25T04:58:41.545Z,11.20
2017-05-25T05:01:09.876Z,11.30
2017-05-25T05:03:38.212Z,11.40
2017-05-25T05:06:06.558Z,11.40
2017-05-25T05:08:34.880Z,11.50
2017-05-25T05:11:03.221Z,11.70
2017-05-25T05:13:31.557Z,12.00
2017-05-25T05:15:59.875Z,12.20
2017-05-25T05:18:28.227Z,12.30
2017-05-25T05:20:56.528Z,12.50
2017-05-25T05:23:24.828Z,12.70
2017-05-25T05:25:53.159Z,12.90
2017-05-25T05:28:21.649Z,13.00
2017-05-25T05:30:49.992Z,13.20
2017-05-25T05:33:18.296Z,13.40
2017-05-25T05:35:46.603Z,13.50
2017-05-25T05:38:14.936Z,13.60
2017-05-25T05:40:43.261Z,13.60
2017-05-25T05:43:11.588Z,13.70
2017-05-25T05:45:39.911Z,14.10
2017-05-25T05:48:08.262Z,14.90
2017-05-25T05:50:36.572Z,15.60
2017-05-25T05:53:04.889Z,16.80
2017-05-25T05:55:33.238Z,17.90
2017-05-25T05:58:01.556Z,18.90
2017-05-25T06:00:29.893Z,19.70
2017-05-25T06:02:58.238Z,19.80
2017-05-25T06:05:26.626Z,19.70
2017-05-25T06:07:54.945Z,19.30
2017-05-25T06:10:23.265Z,19.10
2017-05-25T06:12:51.597Z,19.50
2017-05-25T06:15:19.909Z,20.10
2017-05-25T06:17:48.247Z,20.40
2017-05-25T06:20:16.567Z,20.90
2017-05-25T06:22:44.916Z,21.60
2017-05-25T06:25:13.225Z,22.20
2017-05-25T06:27:41.536Z,22.80
2017-05-25T06:30:09.864Z,23.30
2017-05-25T06:32:38.174Z,23.80
2017-05-25T06:35:06.508Z,24.00
2017-05-25T06:37:34.820Z,24.70
2017-05-25T06:40:03.180Z,25.40
2017-05-25T06:42:31.493Z,25.70
2017-05-25T06:44:59.818Z,25.90
2017-05-25T06:47:28.164Z,26.30
2017-05-25T06:49:56.492Z,26.50
2017-05-25T06:52:24.821Z,26.50
2017-05-25T06:54:52.368Z,26.50
2017-05-25T06:57:20.718Z,26.80
2017-05-25T06:59:49.028Z,26.70
2017-05-25T07:02:17.339Z,27.00
2017-05-25T07:04:45.668Z,27.20
2017-05-25T07:07:14.077Z,27.20
2017-05-25T07:09:42.504Z,27.30
2017-05-25T07:12:10.831Z,27.20
2017-05-25T07:14:39.174Z,27.10
2017-05-25T07:17:07.488Z,27.10
2017-05-25T07:19:35.796Z,27.00
2017-05-25T07:22:04.153Z,27.10
2017-05-25T07:24:32.488Z,26.50
2017-05-25T07:27:00.867Z,26.10
2017-05-25T07:29:30.048Z,26.30
2017-05-25T07:31:58.425Z,26.80
2017-05-25T07:34:26.740Z,26.70
2017-05-25T07:36:55.056Z,26.50
2017-05-25T07:39:23.397Z,26.50
2017-05-25T07:41:51.719Z,26.40
2017-05-25T07:44:20.045Z,26.00
2017-05-25T07:46:48.368Z,25.70
2017-05-25T07:49:16.709Z,25.40
2017-05-25T07:51:45.033Z,24.80
2017-05-25T07:54:13.350Z,24.00
2017-05-25T07:56:41.677Z,23.70
2017-05-25T07:59:09.992Z,23.40
2017-05-25T08:01:38.331Z,23.30
2017-05-25T08:04:05.880Z,23.30
2017-05-25T08:06:34.228Z,24.50
2017-05-25T08:09:02.573Z,24.50
2017-05-25T08:11:30.887Z,24.20
2017-05-25T08:13:59.229Z,23.90
2017-05-25T08:16:27.580Z,23.20
2017-05-25T08:18:55.919Z,22.20
2017-05-25T08:21:24.228Z,21.80
2017-05-25T08:23:52.595Z,21.60
2017-05-25T08:26:20.923Z,21.60
2017-05-25T08:28:49.283Z,21.80
2017-05-25T08:31:17.636Z,21.80
2017-05-25T08:33:45.949Z,22.50
2017-05-25T08:36:14.295Z,23.90
2017-05-25T08:38:42.611Z,24.40
2017-05-25T08:41:10.952Z,24.10
2017-05-25T08:43:39.279Z,23.60
2017-05-25T08:46:07.613Z,23.00
2017-05-25T08:48:35.936Z,22.50
2017-05-25T08:51:04.266Z,22.20
2017-05-25T08:53:32.588Z,22.60
2017-05-25T08:56:00.926Z,23.80
2017-05-25T08:58:29.304Z,24.40
2017-05-25T09:00:57.612Z,24.60
2017-05-25T09:03:25.984Z,24.60
2017-05-25T09:05:54.304Z,24.70
2017-05-25T09:08:22.641Z,25.30
2017-05-25T09:10:50.965Z,26.00
2017-05-25T09:13:19.337Z,26.50
2017-05-25T09:15:47.665Z,26.80
2017-05-25T09:18:16.023Z,27.20
2017-05-25T09:20:44.379Z,27.90
2017-05-25T09:23:12.696Z,28.60
2017-05-25T09:25:41.040Z,28.60
2017-05-25T09:28:09.368Z,28.60
2017-05-25T09:30:37.718Z,28.50
2017-05-25T09:33:06.022Z,27.90
2017-05-25T09:35:34.791Z,27.20
2017-05-25T09:38:03.323Z,26.40
2017-05-25T09:40:31.620Z,25.60
2017-05-25T09:42:59.951Z,24.80
2017-05-25T09:45:28.272Z,24.30
2017-05-25T09:47:56.651Z,24.10
2017-05-25T09:50:24.961Z,24.90
2017-05-25T09:52:53.279Z,26.10
2017-05-25T09:55:21.616Z,27.00
2017-05-25T09:57:49.957Z,27.60
2017-05-25T10:00:18.293Z,28.10
2017-05-25T10:02:46.607Z,27.90
2017-05-25T10:05:14.946Z,27.50
2017-05-25T10:07:43.257Z,27.10
2017-05-25T10:10:11.626Z,27.10
2017-05-25T10:12:39.945Z,27.40
2017-05-25T10:15:08.250Z,28.00
2017-05-25T10:17:36.652Z,28.60
2017-05-25T10:20:04.977Z,29.40
2017-05-25T10:22:33.321Z,30.20
2017-05-25T10:25:01.643Z,30.70
2017-05-25T10:27:30.032Z,31.00
2017-05-25T10:29:58.352Z,31.40
2017-05-25T10:32:26.701Z,31.20
2017-05-25T10:34:55.032Z,31.20
2017-05-25T10:37:23.367Z,30.90
2017-05-25T10:39:51.703Z,30.60
2017-05-25T10:42:20.037Z,29.90
2017-05-25T10:44:48.415Z,29.10
2017-05-25T10:47:16.739Z,28.30
2017-05-25T10:49:45.073Z,28.50
2017-05-25T10:52:13.383Z,28.70
2017-05-25T10:54:41.772Z,28.80
2017-05-25T10:57:10.080Z,29.40
2017-05-25T10:59:38.419Z,30.20
2017-05-25T11:02:06.757Z,30.70
2017-05-25T11:04:35.084Z,31.10
2017-05-25T11:07:03.415Z,31.50
2017-05-25T11:09:31.735Z,32.10
2017-05-25T11:12:00.067Z,32.30
2017-05-25T11:14:28.388Z,32.20
2017-05-25T11:16:56.745Z,32.20
2017-05-25T11:19:25.062Z,32.60
2017-05-25T11:21:53.373Z,32.30
2017-05-25T11:24:21.708Z,31.30
2017-05-25T11:26:50.030Z,29.80
2017-05-25T11:29:18.364Z,29.30
2017-05-25T11:31:46.677Z,29.10
2017-05-25T11:34:15.012Z,28.90
2017-05-25T11:36:43.324Z,28.10
2017-05-25T11:39:11.672Z,27.90
2017-05-25T11:41:39.996Z,27.90
2017-05-25T11:44:08.311Z,28.20
2017-05-25T11:46:36.695Z,28.90
2017-05-25T11:49:05.057Z,29.10
2017-05-25T11:51:33.389Z,28.80
2017-05-25T11:54:01.716Z,28.20
2017-05-25T11:56:30.060Z,28.30
2017-05-25T11:58:58.377Z,29.00
2017-05-25T12:01:26.742Z,29.10
2017-05-25T12:03:55.079Z,29.50
2017-05-25T12:06:23.400Z,29.40
2017-05-25T12:08:51.724Z,28.70
2017-05-25T12:11:20.052Z,28.20
2017-05-25T12:13:48.379Z,28.50
2017-05-25T12:16:16.725Z,28.10
2017-05-25T12:18:45.062Z,27.40
2017-05-25T12:21:13.410Z,27.00
2017-05-25T12:23:41.735Z,27.40
2017-05-25T12:26:10.041Z,27.50
2017-05-25T12:28:38.396Z,28.10
2017-05-25T12:31:06.789Z,28.70
2017-05-25T12:33:35.101Z,29.40
2017-05-25T12:36:03.439Z,29.70
2017-05-25T12:38:31.768Z,29.60
2017-05-25T12:41:00.112Z,29.60
2017-05-25T12:43:28.424Z,29.80
2017-05-25T12:45:56.760Z,30.10
2017-05-25T12:48:25.074Z,29.80
2017-05-25T12:50:53.413Z,29.20
2017-05-25T12:53:21.716Z,28.70
2017-05-25T12:55:50.024Z,28.10
2017-05-25T12:58:18.353Z,27.40
2017-05-25T13:00:46.664Z,27.20
2017-05-25T13:03:15.000Z,26.90
2017-05-25T13:05:43.336Z,26.80
2017-05-25T13:08:11.664Z,26.90
2017-05-25T13:10:39.986Z,26.80
2017-05-25T13:13:08.328Z,26.70
2017-05-25T13:15:36.659Z,27.00
2017-05-25T13:18:04.985Z,26.90
2017-05-25T13:20:33.311Z,27.00
2017-05-25T13:23:01.620Z,27.30
2017-05-25T13:25:30.006Z,27.70
2017-05-25T13:27:58.332Z,27.90
2017-05-25T13:30:26.676Z,28.10
2017-05-25T13:32:54.997Z,28.10
2017-05-25T13:35:23.356Z,28.10
2017-05-25T13:37:51.665Z,28.30
2017-05-25T13:40:19.968Z,28.50
2017-05-25T13:42:48.305Z,28.50
2017-05-25T13:45:16.614Z,28.20
2017-05-25T13:47:44.947Z,28.20
2017-05-25T13:50:13.262Z,28.40
2017-05-25T13:52:41.601Z,28.50
2017-05-25T13:55:09.921Z,28.50
2017-05-25T13:57:38.308Z,28.50
2017-05-25T14:00:06.620Z,28.50
2017-05-25T14:02:34.970Z,28.50
2017-05-25T14:05:03.303Z,28.50
2017-05-25T14:07:31.617Z,27.90
2017-05-25T14:09:59.945Z,27.00
2017-05-25T14:12:28.270Z,26.40
2017-05-25T14:14:56.599Z,26.10
2017-05-25T14:17:24.915Z,26.00
2017-05-25T14:19:53.264Z,26.10
2017-05-25T14:22:21.578Z,26.40
2017-05-25T14:24:49.904Z,26.70
2017-05-25T14:27:18.242Z,27.00
2017-05-25T14:29:46.588Z,27.20
2017-05-25T14:32:14.917Z,27.20
2017-05-25T14:34:43.240Z,27.20
2017-05-25T14:37:11.580Z,26.70
2017-05-25T14:39:39.905Z,26.10
2017-05-25T14:42:08.249Z,25.70
2017-05-25T14:44:36.563Z,25.70
2017-05-25T14:47:04.884Z,25.80
2017-05-25T14:49:33.216Z,26.10
2017-05-25T14:52:01.528Z,26.20
2017-05-25T14:54:29.863Z,26.20
2017-05-25T14:56:58.179Z,25.90
2017-05-25T14:59:26.516Z,25.50
2017-05-25T15:01:54.835Z,25.10
2017-05-25T15:04:23.169Z,25.10
2017-05-25T15:06:51.491Z,25.30
2017-05-25T15:09:19.813Z,25.20
2017-05-25T15:11:48.158Z,25.20
2017-05-25T15:14:16.462Z,25.40
2017-05-25T15:16:44.792Z,25.40
2017-05-25T15:19:13.121Z,25.30
2017-05-25T15:21:41.451Z,25.30
2017-05-25T15:24:09.782Z,25.30
2017-05-25T15:26:38.145Z,25.20
2017-05-25T15:29:06.461Z,25.20
2017-05-25T15:31:34.789Z,25.10
2017-05-25T15:34:03.132Z,25.00
2017-05-25T15:36:31.443Z,25.10
2017-05-25T15:38:59.776Z,25.00
2017-05-25T15:41:28.131Z,25.00
2017-05-25T15:43:56.466Z,25.10
2017-05-25T15:46:24.772Z,25.20
2017-05-25T15:48:53.112Z,25.00
2017-05-25T15:51:21.433Z,24.80
2017-05-25T15:53:49.784Z,24.60
2017-05-25T15:56:18.121Z,24.40
2017-05-25T15:58:46.452Z,24.20
2017-05-25T16:01:14.773Z,23.90
2017-05-25T16:03:43.097Z,23.60
2017-05-25T16:06:11.423Z,23.30
2017-05-25T16:08:39.740Z,23.20
2017-05-25T16:11:08.093Z,23.10
2017-05-25T16:13:36.404Z,23.20
2017-05-25T16:16:04.738Z,23.40
2017-05-25T16:18:33.056Z,23.40
2017-05-25T16:21:01.397Z,23.40
2017-05-25T16:23:29.735Z,23.30
2017-05-25T16:25:58.036Z,23.30
2017-05-25T16:28:26.376Z,23.10
2017-05-25T16:30:54.685Z,23.10
2017-05-25T16:33:23.027Z,22.90
2017-05-25T16:35:51.351Z,22.60
2017-05-25T16:38:19.691Z,22.60
2017-05-25T16:40:48.004Z,22.50
2017-05-25T16:43:16.337Z,22.50
2017-05-25T16:45:44.654Z,22.60
2017-05-25T16:48:12.984Z,22.70
2017-05-25T16:50:41.299Z,22.80
2017-05-25T16:53:09.623Z,22.80
2017-05-25T16:55:37.956Z,22.80
2017-05-25T16:58:06.273Z,22.80
2017-05-25T17:00:34.596Z,22.70
2017-05-25T17:03:02.911Z,22.70
2017-05-25T17:05:31.256Z,22.60
2017-05-25T17:07:59.555Z,22.50
2017-05-25T17:10:27.896Z,22.40
2017-05-25T17:12:56.224Z,22.30
2017-05-25T17:15:24.547Z,22.30
2017-05-25T17:17:52.894Z,22.30
2017-05-25T17:20:21.219Z,22.10
2017-05-25T17:22:49.552Z,22.00
2017-05-25T17:25:17.855Z,21.90
2017-05-25T17:27:46.196Z,21.80
2017-05-25T17:30:14.996Z,21.70
2017-05-25T17:32:43.448Z,21.60
2017-05-25T17:35:11.813Z,21.50
2017-05-25T17:37:40.134Z,21.40
2017-05-25T17:40:08.567Z,21.30
2017-05-25T17:42:36.963Z,21.20
2017-05-25T17:45:05.390Z,21.10
2017-05-25T17:47:33.789Z,21.00
2017-05-25T17:50:02.234Z,21.00
2017-05-25T17:52:30.656Z,20.90
2017-05-25T17:54:59.100Z,20.80
2017-05-25T17:57:27.516Z,20.70
2017-05-25T17:59:55.915Z,20.70
2017-05-25T18:02:24.256Z,20.60
2017-05-25T18:04:52.560Z,20.50
2017-05-25T18:07:20.883Z,20.40
2017-05-25T18:09:49.185Z,20.40
2017-05-25T18:12:17.515Z,20.30
2017-05-25T18:14:45.832Z,20.20
2017-05-25T18:17:14.171Z,20.10
2017-05-25T18:19:42.504Z,20.00
2017-05-25T18:22:10.862Z,19.80
2017-05-25T18:24:39.177Z,19.60
2017-05-25T18:27:07.491Z,19.50
2017-05-25T18:29:35.825Z,19.40
2017-05-25T18:32:04.148Z,19.20
2017-05-25T18:34:32.484Z,19.20
2017-05-25T18:37:00.806Z,19.10
2017-05-25T18:39:29.140Z,19.20
2017-05-25T18:41:57.457Z,19.20
2017-05-25T18:44:25.786Z,19.20
2017-05-25T18:46:54.108Z,19.20
2017-05-25T18:49:22.470Z,19.20
2017-05-25T18:51:50.788Z,19.20
2017-05-25T18:54:19.107Z,19.20
2017-05-25T18:56:47.448Z,19.10
2017-05-25T18:59:15.794Z,19.00
2017-05-25T19:01:44.127Z,19.00
2017-05-25T19:04:12.456Z,18.90
2017-05-25T19:06:40.780Z,18.80
2017-05-25T19:09:09.123Z,18.80
2017-05-25T19:11:37.448Z,18.60
2017-05-25T19:14:04.984Z,18.60
2017-05-25T19:16:33.316Z,18.00
2017-05-25T19:19:00.848Z,18.00
2017-05-25T19:21:29.162Z,17.30
2017-05-25T19:23:57.493Z,17.20
2017-05-25T19:26:25.805Z,17.00
2017-05-25T19:28:54.128Z,16.90
2017-05-25T19:31:22.443Z,16.80
2017-05-25T19:33:50.763Z,16.70
2017-05-25T19:36:19.064Z,16.60
2017-05-25T19:38:47.391Z,16.60
2017-05-25T19:41:15.691Z,16.60
2017-05-25T19:43:44.042Z,16.30
2017-05-25T19:46:12.349Z,15.90
2017-05-25T19:48:40.660Z,15.70
2017-05-25T19:51:08.992Z,15.80
2017-05-25T19:53:37.291Z,15.80
2017-05-25T19:56:05.616Z,15.80
2017-05-25T19:58:33.919Z,15.50
2017-05-25T20:01:02.240Z,15.30
2017-05-25T20:03:30.535Z,15.20
2017-05-25T20:05:58.866Z,15.20
2017-05-25T20:08:27.163Z,15.20
2017-05-25T20:10:55.491Z,15.30
2017-05-25T20:13:23.788Z,15.40
2017-05-25T20:15:52.164Z,15.40
2017-05-25T20:18:20.567Z,15.30
2017-05-25T20:20:48.968Z,15.00
2017-05-25T20:23:17.283Z,14.80
2017-05-25T20:25:45.590Z,14.60
2017-05-25T20:28:13.933Z,14.50
2017-05-25T20:30:42.227Z,14.40
2017-05-25T20:33:10.538Z,14.40
2017-05-25T20:35:38.859Z,14.50
2017-05-25T20:38:07.170Z,14.50
2017-05-25T20:40:35.499Z,14.50
2017-05-25T20:43:03.795Z,14.50
2017-05-25T20:45:32.119Z,14.50
2017-05-25T20:48:00.448Z,14.40
2017-05-25T20:50:28.768Z,14.10
2017-05-25T20:52:57.067Z,13.80
2017-05-25T20:55:25.384Z,13.60
2017-05-25T20:57:53.683Z,13.60
2017-05-25T21:00:22.024Z,13.50
2017-05-25T21:02:50.324Z,13.40
2017-05-25T21:05:17.864Z,13.40
2017-05-25T21:07:46.193Z,13.30
2017-05-25T21:10:14.496Z,13.30
2017-05-25T21:12:42.812Z,13.40
2017-05-25T21:15:11.112Z,13.40
2017-05-25T21:17:39.437Z,13.40
2017-05-25T21:20:07.755Z,13.50
2017-05-25T21:22:36.080Z,13.60
2017-05-25T21:25:04.375Z,13.60
2017-05-25T21:27:32.704Z,13.60
2017-05-25T21:30:00.999Z,13.70
2017-05-25T21:32:29.305Z,13.70
2017-05-25T21:34:57.624Z,13.70
2017-05-25T21:37:25.924Z,13.60
2017-05-25T21:39:54.244Z,13.30
2017-05-25T21:42:22.542Z,13.10
2017-05-25T21:44:50.879Z,12.90
2017-05-25T21:47:19.177Z,12.80
2017-05-25T21:49:47.475Z,12.70
2017-05-25T21:52:15.800Z,12.80
2017-05-25T21:54:44.098Z,12.80
2017-05-25T21:57:12.411Z,12.80
2017-05-25T21:59:40.711Z,12.90
2017-05-25T22:02:09.051Z,12.90
2017-05-25T22:04:37.356Z,13.00
2017-05-25T22:07:05.658Z,13.00
2017-05-25T22:09:33.975Z,13.00
2017-05-25T22:12:02.280Z,13.00
2017-05-25T22:14:30.599Z,13.00
2017-05-25T22:16:58.895Z,12.90
2017-05-25T22:19:27.223Z,12.90
2017-05-25T22:21:55.532Z,12.90
2017-05-25T22:24:23.867Z,12.90
2017-05-25T22:26:52.169Z,13.00
2017-05-25T22:29:20.474Z,12.80
2017-05-25T22:31:48.792Z,12.60
2017-05-25T22:34:17.104Z,12.40
2017-05-25T22:36:45.421Z,12.30
2017-05-25T22:39:13.721Z,12.20
2017-05-25T22:41:42.035Z,12.10
2017-05-25T22:44:10.345Z,12.00
2017-05-25T22:46:38.672Z,12.00
2017-05-25T22:49:06.966Z,12.00
2017-05-25T22:51:35.270Z,12.00
2017-05-25T22:54:03.588Z,12.10
2017-05-25T22:56:31.892Z,12.00
2017-05-25T22:59:00.215Z,11.90
2017-05-25T23:01:28.716Z,11.80
2017-05-25T23:03:57.035Z,11.80
2017-05-25T23:06:25.343Z,11.80
2017-05-25T23:08:53.700Z,11.90
2017-05-25T23:11:22.019Z,11.90
2017-05-25T23:13:50.325Z,11.90
2017-05-25T23:16:18.655Z,12.00
2017-05-25T23:18:46.962Z,12.00
2017-05-25T23:21:15.292Z,12.10
2017-05-25T23:23:43.592Z,12.20
2017-05-25T23:26:11.918Z,12.30
2017-05-25T23:28:40.221Z,12.20
2017-05-25T23:31:08.554Z,12.10
2017-05-25T23:33:36.859Z,11.90
2017-05-25T23:36:05.207Z,11.60
2017-05-25T23:38:33.504Z,11.20
2017-05-25T23:41:01.811Z,11.00
2017-05-25T23:43:30.137Z,11.00
2017-05-25T23:45:58.442Z,11.10
2017-05-25T23:48:26.775Z,11.10
2017-05-25T23:50:55.072Z,11.20
2017-05-25T23:53:23.395Z,11.20
2017-05-25T23:55:51.702Z,11.10
2017-05-25T23:58:20.020Z,11.10
